Aviation Digital Data Service (ADDS)

Output produced by METARs form (1243 UTC 10 July 2020)
found at http://www.aviationweather.gov/metar/data/
 
KATL 101152Z 27004KT 10SM FEW005 FEW040 SCT180 SCT250 24/22 A2999 RMK AO2 SLP147 70020 T02390222 10239 20222 53011
KATL 101127Z 1012/1118 00000KT P6SM FEW003 SCT040 SCT250 
     FM101300 31004KT P6SM SCT040 
     FM101600 28006KT P6SM SCT050 
     FM110200 30007KT P6SM FEW250 
     FM111600 33012KT P6SM SKC